Time;durP1;ratioP1;P1;durP2;ratioP2;P2;SDS_P1;SDS_P2;PMS_P1;PMS_P2;Temp;Humidity;BMP_temperature;BMP_pressure;BME280_temperature;BME280_humidity;BME280_pressure;Samples;Min_cycle;Max_cycle;Signal;HPM_P1;HPM_P2
2023/11/28 00:01:00;;;;;;;0.10;0.05;;;4.50;80.70;;;;;;4993279;28;20471;-75
2023/11/28 00:03:25;;;;;;;0.00;0.00;;;4.50;80.70;;;;;;4993195;28;20030;-75
2023/11/28 00:05:51;;;;;;;0.15;0.15;;;4.50;80.30;;;;;;4993154;28;20502;-75
2023/11/28 00:08:20;;;;;;;0.00;0.00;;;4.50;80.30;;;;;;4993327;28;20054;-75
2023/11/28 00:10:46;;;;;;;0.10;0.00;;;4.50;80.50;;;;;;4993084;28;20109;-76
2023/11/28 00:13:11;;;;;;;0.20;0.00;;;4.50;80.50;;;;;;4975563;28;20061;-75
2023/11/28 00:15:37;;;;;;;0.10;0.00;;;4.50;80.80;;;;;;4993113;28;20030;-75
2023/11/28 00:18:03;;;;;;;0.10;0.08;;;4.50;80.70;;;;;;4992941;28;20030;-75
2023/11/28 00:20:29;;;;;;;0.22;0.00;;;4.50;80.80;;;;;;4992976;28;20377;-76
2023/11/28 00:22:54;;;;;;;0.00;0.00;;;4.40;81.20;;;;;;4993083;28;20038;-75
2023/11/28 00:25:20;;;;;;;0.08;0.00;;;4.50;81.10;;;;;;4975507;28;20070;-76
2023/11/28 00:27:46;;;;;;;0.10;0.00;;;4.50;81.00;;;;;;4992871;28;20069;-76
2023/11/28 00:30:14;;;;;;;0.00;0.00;;;4.50;81.10;;;;;;4992757;28;20109;-76
2023/11/28 00:32:40;;;;;;;0.10;0.10;;;4.50;81.40;;;;;;4992804;28;20118;-76
2023/11/28 00:35:08;;;;;;;0.30;0.20;;;4.60;81.30;;;;;;4992881;28;20109;-76
2023/11/28 00:37:33;;;;;;;0.10;0.10;;;4.50;81.40;;;;;;4992911;28;20030;-76
2023/11/28 00:39:59;;;;;;;0.00;0.00;;;4.50;81.90;;;;;;4992861;28;20041;-76
2023/11/28 00:42:25;;;;;;;0.00;0.00;;;4.50;82.20;;;;;;4992729;28;20058;-77
2023/11/28 00:44:52;;;;;;;0.57;0.10;;;4.50;82.40;;;;;;4992636;28;20026;-76
2023/11/28 00:47:18;;;;;;;0.10;0.10;;;4.40;82.60;;;;;;4992757;28;20551;-76
2023/11/28 00:49:44;;;;;;;1.00;0.10;;;4.40;82.70;;;;;;4992819;28;20061;-75
2023/11/28 00:52:10;;;;;;;0.00;0.00;;;4.40;82.50;;;;;;4992616;28;20046;-76
2023/11/28 00:54:38;;;;;;;0.22;0.10;;;4.50;82.60;;;;;;4995303;28;20022;-76
2023/11/28 00:57:04;;;;;;;0.35;0.10;;;4.50;82.60;;;;;;4996252;28;20384;-76
2023/11/28 00:59:30;;;;;;;0.20;0.10;;;4.50;83.00;;;;;;4996242;28;20062;-76
2023/11/28 01:01:56;;;;;;;0.10;0.10;;;4.50;83.10;;;;;;4996295;28;20022;-77
2023/11/28 01:04:21;;;;;;;0.10;0.08;;;4.60;82.60;;;;;;4996081;28;20494;-76
2023/11/28 01:06:47;;;;;;;0.45;0.10;;;4.60;82.40;;;;;;4978594;28;20081;-76
2023/11/28 01:09:14;;;;;;;0.35;0.10;;;4.60;82.40;;;;;;4996054;28;20023;-77
2023/11/28 01:11:40;;;;;;;0.00;0.00;;;4.60;82.20;;;;;;4995745;28;20046;-77
2023/11/28 01:14:07;;;;;;;0.10;0.10;;;4.60;82.00;;;;;;4995950;28;20030;-76
2023/11/28 01:16:33;;;;;;;0.00;0.00;;;4.60;82.00;;;;;;4995964;28;20029;-77
2023/11/28 01:18:58;;;;;;;1.02;0.10;;;4.70;81.80;;;;;;4996237;28;20019;-76
2023/11/28 01:21:24;;;;;;;0.10;0.08;;;4.70;81.40;;;;;;4995908;28;20105;-75
2023/11/28 01:23:50;;;;;;;0.25;0.10;;;4.70;81.50;;;;;;4995786;28;20018;-76
2023/11/28 01:26:15;;;;;;;0.10;0.10;;;4.70;81.60;;;;;;4995801;28;20483;-76
2023/11/28 01:28:41;;;;;;;0.10;0.10;;;4.70;81.60;;;;;;4995741;28;20105;-76
2023/11/28 01:31:06;;;;;;;0.00;0.00;;;4.70;81.40;;;;;;4995520;28;20030;-75
2023/11/28 01:33:32;;;;;;;0.05;0.05;;;4.80;81.20;;;;;;4995467;28;20022;-76
2023/11/28 01:35:58;;;;;;;0.00;0.00;;;4.70;81.50;;;;;;4995544;28;20034;-76
2023/11/28 01:38:23;;;;;;;0.10;0.10;;;4.80;81.10;;;;;;4995461;28;20026;-75
2023/11/28 01:40:50;;;;;;;0.10;0.10;;;4.80;81.00;;;;;;4995437;28;20026;-75
2023/11/28 01:43:25;;;;;;;0.15;0.10;;;4.80;80.90;;;;;;4995424;28;20030;-76
2023/11/28 01:45:52;;;;;;;0.10;0.10;;;4.80;80.90;;;;;;4995274;28;20034;-75
2023/11/28 01:48:19;;;;;;;0.13;0.10;;;4.80;81.00;;;;;;4995296;28;20029;-75
2023/11/28 01:50:47;;;;;;;0.32;0.10;;;4.90;81.00;;;;;;4995137;28;20018;-75
2023/11/28 01:53:12;;;;;;;0.28;0.10;;;4.90;80.80;;;;;;4995224;28;20038;-75
2023/11/28 01:55:38;;;;;;;0.10;0.10;;;4.80;81.00;;;;;;4995208;28;20085;-75
2023/11/28 01:58:04;;;;;;;0.20;0.20;;;4.80;81.30;;;;;;4995097;28;20041;-76
2023/11/28 02:00:30;;;;;;;0.10;0.10;;;4.80;81.60;;;;;;4995101;28;20069;-76
2023/11/28 02:02:59;;;;;;;0.10;0.10;;;4.80;81.50;;;;;;4977423;28;20027;-76
2023/11/28 02:05:26;;;;;;;0.10;0.10;;;4.80;81.60;;;;;;4977468;28;20066;-77
2023/11/28 02:07:52;;;;;;;0.10;0.10;;;4.80;81.60;;;;;;4994782;28;20034;-77
2023/11/28 02:10:18;;;;;;;0.17;0.10;;;4.80;81.90;;;;;;4995062;28;20023;-76
2023/11/28 02:12:44;;;;;;;0.10;0.00;;;4.70;82.20;;;;;;4994753;28;20050;-76
2023/11/28 02:15:10;;;;;;;0.10;0.10;;;4.70;82.50;;;;;;4994755;28;20041;-76
2023/11/28 02:17:35;;;;;;;0.10;0.10;;;4.70;82.20;;;;;;4994867;28;20030;-76
2023/11/28 02:20:01;;;;;;;0.05;0.03;;;4.70;82.30;;;;;;4994836;28;20502;-76
2023/11/28 02:22:27;;;;;;;0.95;0.17;;;4.70;82.50;;;;;;4977318;28;20030;-77
2023/11/28 02:24:56;;;;;;;0.63;0.10;;;4.70;82.30;;;;;;4994762;28;20027;-77
2023/11/28 02:27:21;;;;;;;0.32;0.10;;;4.80;82.10;;;;;;4994659;28;20022;-77
2023/11/28 02:29:47;;;;;;;0.30;0.10;;;4.80;82.20;;;;;;4994582;28;20534;-77
2023/11/28 02:32:13;;;;;;;0.20;0.20;;;4.70;82.40;;;;;;4994497;28;20038;-77
2023/11/28 02:34:38;;;;;;;0.63;0.10;;;4.70;82.50;;;;;;4994511;28;20022;-77
2023/11/28 02:37:04;;;;;;;0.70;0.10;;;4.80;82.80;;;;;;4994541;28;20105;-77
2023/11/28 02:39:30;;;;;;;0.28;0.10;;;4.80;82.40;;;;;;4994506;28;20467;-77
2023/11/28 02:41:55;;;;;;;0.43;0.10;;;4.80;82.40;;;;;;4994113;28;20030;-77
2023/11/28 02:44:21;;;;;;;0.10;0.10;;;4.80;82.80;;;;;;4994152;28;20081;-76
2023/11/28 02:46:47;;;;;;;0.10;0.10;;;4.80;82.80;;;;;;4994293;28;20065;-77
2023/11/28 02:49:12;;;;;;;0.43;0.20;;;4.80;82.90;;;;;;4994189;28;20037;-76
2023/11/28 02:51:38;;;;;;;0.20;0.20;;;4.90;83.00;;;;;;4993952;28;20030;-76
2023/11/28 02:54:04;;;;;;;0.22;0.20;;;4.90;83.30;;;;;;4993946;28;20040;-76
2023/11/28 02:56:29;;;;;;;0.10;0.10;;;4.90;83.40;;;;;;4988802;28;20105;-76
2023/11/28 02:58:56;;;;;;;0.25;0.20;;;4.80;82.80;;;;;;4974608;28;20114;-76
2023/11/28 03:01:22;;;;;;;0.20;0.10;;;4.80;83.10;;;;;;4974699;28;20026;-76
2023/11/28 03:03:48;;;;;;;0.20;0.20;;;4.80;82.80;;;;;;4974559;28;20033;-78
2023/11/28 03:06:14;;;;;;;0.10;0.10;;;4.80;83.30;;;;;;4974677;28;20078;-76
2023/11/28 03:08:39;;;;;;;0.10;0.10;;;4.80;83.00;;;;;;4974465;28;20332;-75
2023/11/28 03:11:07;;;;;;;0.10;0.10;;;4.80;83.30;;;;;;4974131;28;20480;-76
2023/11/28 03:13:33;;;;;;;0.20;0.10;;;4.80;82.90;;;;;;4974130;28;20542;-77
2023/11/28 03:15:59;;;;;;;0.30;0.20;;;4.80;82.80;;;;;;4973793;28;20035;-75
2023/11/28 03:18:24;;;;;;;0.10;0.10;;;4.90;82.60;;;;;;4974268;28;20034;-75
2023/11/28 03:20:50;;;;;;;0.03;0.03;;;4.90;82.40;;;;;;4974283;28;20041;-75
2023/11/28 03:23:15;;;;;;;0.10;0.10;;;4.90;82.50;;;;;;4974034;28;20398;-75
2023/11/28 03:25:41;;;;;;;0.10;0.10;;;4.80;83.10;;;;;;4956922;28;20476;-75
2023/11/28 03:28:06;;;;;;;1.75;0.08;;;4.80;83.10;;;;;;4973979;28;20033;-75
2023/11/28 03:30:32;;;;;;;0.10;0.00;;;4.80;83.50;;;;;;4974238;28;20041;-75
2023/11/28 03:32:57;;;;;;;0.10;0.10;;;4.80;83.20;;;;;;4974116;28;20072;-75
2023/11/28 03:35:23;;;;;;;0.10;0.10;;;4.80;83.10;;;;;;4974046;28;20380;-75
2023/11/28 03:37:48;;;;;;;0.00;0.00;;;4.80;83.40;;;;;;4973960;28;20039;-75
2023/11/28 03:40:14;;;;;;;0.08;0.00;;;4.80;83.30;;;;;;4974018;28;20390;-75
2023/11/28 03:42:41;;;;;;;0.75;0.00;;;4.80;83.40;;;;;;4973799;28;20476;-75
2023/11/28 03:45:07;;;;;;;0.00;0.00;;;4.80;82.80;;;;;;4974062;28;20492;-74
2023/11/28 03:47:33;;;;;;;0.00;0.00;;;4.70;83.50;;;;;;4956623;28;20027;-74
2023/11/28 03:49:59;;;;;;;0.10;0.10;;;4.80;83.00;;;;;;4973909;28;20027;-74
2023/11/28 03:52:24;;;;;;;0.05;0.05;;;4.90;81.70;;;;;;4973640;28;20049;-74
2023/11/28 03:54:50;;;;;;;0.10;0.10;;;5.00;82.00;;;;;;4973819;28;20098;-73
2023/11/28 03:57:15;;;;;;;0.75;0.20;;;5.10;81.80;;;;;;4973852;28;20400;-74
2023/11/28 03:59:41;;;;;;;0.00;0.00;;;5.00;82.40;;;;;;4956404;28;20110;-74
2023/11/28 04:02:07;;;;;;;0.05;0.05;;;5.00;83.20;;;;;;4956385;28;20126;-74
2023/11/28 04:04:33;;;;;;;0.10;0.10;;;5.00;83.60;;;;;;4973525;28;20049;-74
2023/11/28 04:06:59;;;;;;;0.10;0.10;;;5.00;83.70;;;;;;4973803;28;20498;-74
2023/11/28 04:09:24;;;;;;;0.00;0.00;;;4.90;84.00;;;;;;4973749;28;20031;-74
2023/11/28 04:11:50;;;;;;;0.13;0.10;;;4.90;84.00;;;;;;4973488;28;20051;-74
2023/11/28 04:14:16;;;;;;;1.35;0.13;;;4.90;84.10;;;;;;4973738;28;20483;-74
2023/11/28 04:16:42;;;;;;;0.05;0.05;;;4.90;84.00;;;;;;4973669;28;20439;-74
2023/11/28 04:19:07;;;;;;;0.10;0.10;;;4.90;84.80;;;;;;4973583;28;20027;-74
2023/11/28 04:21:33;;;;;;;0.17;0.08;;;4.80;84.30;;;;;;4973595;28;20033;-74
2023/11/28 04:23:59;;;;;;;0.10;0.10;;;4.80;84.20;;;;;;4973372;28;20105;-74
2023/11/28 04:26:25;;;;;;;0.25;0.20;;;4.90;84.00;;;;;;4973456;28;20041;-74
2023/11/28 04:28:50;;;;;;;0.10;0.10;;;4.80;84.10;;;;;;4976666;28;20030;-75
2023/11/28 04:31:17;;;;;;;0.30;0.13;;;4.80;84.20;;;;;;4977086;28;20027;-74
2023/11/28 04:33:43;;;;;;;0.47;0.20;;;4.90;83.50;;;;;;4977033;28;20031;-75
2023/11/28 04:36:09;;;;;;;1.33;0.20;;;4.80;84.00;;;;;;4977112;28;20136;-74
2023/11/28 04:38:35;;;;;;;2.75;0.30;;;4.80;84.20;;;;;;4976930;28;20369;-74
2023/11/28 04:41:01;;;;;;;0.10;0.10;;;4.80;83.90;;;;;;4976976;28;20081;-74
2023/11/28 04:43:26;;;;;;;1.00;0.25;;;4.80;84.00;;;;;;4976987;28;20038;-74
2023/11/28 04:45:53;;;;;;;0.10;0.10;;;4.80;84.00;;;;;;4977020;28;20078;-74
2023/11/28 04:48:19;;;;;;;0.30;0.10;;;4.80;84.10;;;;;;4976840;28;20057;-74
2023/11/28 04:50:44;;;;;;;0.05;0.05;;;4.80;84.60;;;;;;4976807;28;20464;-74
2023/11/28 04:53:10;;;;;;;0.30;0.20;;;4.80;85.50;;;;;;4976782;28;20165;-74
2023/11/28 04:55:35;;;;;;;0.80;0.47;;;4.80;85.80;;;;;;4976738;28;20109;-74
2023/11/28 04:58:01;;;;;;;0.50;0.40;;;4.70;86.30;;;;;;4976687;28;20034;-74
2023/11/28 05:00:26;;;;;;;1.40;0.80;;;4.70;86.90;;;;;;4976539;28;20498;-74
2023/11/28 05:02:52;;;;;;;0.30;0.30;;;4.70;87.00;;;;;;4959273;28;20070;-75
2023/11/28 05:05:17;;;;;;;0.30;0.30;;;4.70;86.70;;;;;;4976634;28;20035;-75
2023/11/28 05:07:43;;;;;;;2.95;0.90;;;4.70;86.10;;;;;;4976616;28;20027;-75
2023/11/28 05:10:09;;;;;;;1.65;1.00;;;4.70;86.70;;;;;;4976527;28;20019;-74
2023/11/28 05:12:35;;;;;;;0.65;0.50;;;4.70;86.90;;;;;;4976288;28;20097;-75
2023/11/28 05:15:02;;;;;;;0.75;0.50;;;4.70;87.60;;;;;;4976259;28;20130;-75
2023/11/28 05:17:28;;;;;;;0.28;0.28;;;4.70;87.40;;;;;;4976415;28;20027;-75
2023/11/28 05:19:53;;;;;;;1.02;0.40;;;4.70;87.70;;;;;;4976347;28;20026;-75
2023/11/28 05:22:19;;;;;;;1.27;0.85;;;4.70;87.80;;;;;;4976358;28;20553;-75
2023/11/28 05:24:45;;;;;;;2.72;1.20;;;4.60;88.40;;;;;;4976230;28;20023;-75
2023/11/28 05:27:10;;;;;;;1.13;0.70;;;4.50;89.30;;;;;;4976049;28;20506;-75
2023/11/28 05:29:36;;;;;;;1.48;0.73;;;4.40;89.70;;;;;;4976264;28;20047;-75
2023/11/28 05:32:04;;;;;;;2.33;1.00;;;4.30;90.30;;;;;;4958744;28;20066;-76
2023/11/28 05:34:30;;;;;;;2.55;0.70;;;4.30;90.60;;;;;;4976220;28;20089;-76
2023/11/28 05:36:56;;;;;;;3.28;0.93;;;4.30;90.80;;;;;;4976223;28;20023;-75
2023/11/28 05:39:22;;;;;;;1.40;0.70;;;4.30;90.80;;;;;;4958178;28;20026;-76
2023/11/28 05:41:48;;;;;;;1.98;0.93;;;4.40;90.60;;;;;;4976027;28;20478;-74
2023/11/28 05:44:13;;;;;;;1.38;0.98;;;4.40;90.50;;;;;;4976081;28;20102;-74
2023/11/28 05:46:39;;;;;;;2.72;1.00;;;4.40;90.30;;;;;;4976029;28;20031;-75
2023/11/28 05:49:05;;;;;;;3.22;1.50;;;4.40;90.20;;;;;;4976044;28;20019;-76
2023/11/28 05:51:31;;;;;;;2.40;1.40;;;4.40;90.20;;;;;;4975797;28;20030;-76
2023/11/28 05:53:58;;;;;;;1.45;1.20;;;4.50;90.20;;;;;;4975828;28;20023;-76
2023/11/28 05:56:24;;;;;;;1.45;1.00;;;4.50;90.00;;;;;;4975732;28;20391;-76
2023/11/28 05:58:49;;;;;;;1.33;0.70;;;4.50;90.00;;;;;;4975722;28;20037;-76
2023/11/28 06:01:15;;;;;;;2.33;1.40;;;4.50;90.10;;;;;;4958225;28;20031;-76
2023/11/28 06:03:41;;;;;;;4.43;2.15;;;4.50;90.00;;;;;;4975663;28;20487;-76
2023/11/28 06:06:07;;;;;;;25.23;12.00;;;4.50;90.20;;;;;;4975623;28;20077;-76
2023/11/28 06:08:32;;;;;;;14.43;7.28;;;4.60;90.10;;;;;;4975587;28;20535;-76
2023/11/28 06:10:58;;;;;;;6.65;4.18;;;4.60;89.90;;;;;;4975323;28;20039;-76
2023/11/28 06:13:23;;;;;;;4.40;3.70;;;4.60;89.70;;;;;;4958258;28;20388;-76
2023/11/28 06:15:49;;;;;;;5.03;3.40;;;4.60;89.30;;;;;;4975975;28;20388;-76
2023/11/28 06:18:15;;;;;;;7.28;4.32;;;4.60;89.20;;;;;;4975631;28;20395;-77
2023/11/28 06:20:41;;;;;;;2.33;1.90;;;4.60;89.10;;;;;;4975088;28;20106;-76
2023/11/28 06:23:06;;;;;;;1.60;0.98;;;4.60;88.50;;;;;;4974966;28;20033;-76
2023/11/28 06:25:32;;;;;;;0.65;0.65;;;4.60;87.80;;;;;;4975115;28;20023;-76
2023/11/28 06:27:58;;;;;;;1.42;0.60;;;4.50;88.30;;;;;;4975056;28;20066;-76
2023/11/28 06:30:23;;;;;;;1.90;0.93;;;4.40;87.50;;;;;;4974549;28;20488;-76
2023/11/28 06:32:49;;;;;;;2.65;0.50;;;4.40;87.30;;;;;;4974805;28;20105;-76
2023/11/28 06:35:14;;;;;;;2.05;0.65;;;4.30;87.10;;;;;;4974802;28;20030;-76
2023/11/28 06:37:40;;;;;;;3.58;1.52;;;4.20;87.70;;;;;;4974778;28;20023;-75
2023/11/28 06:40:06;;;;;;;3.42;1.60;;;4.10;87.90;;;;;;4974875;28;20480;-75
2023/11/28 06:42:32;;;;;;;4.03;1.70;;;4.20;87.80;;;;;;4974985;28;20112;-75
2023/11/28 06:44:57;;;;;;;5.15;2.30;;;3.90;88.30;;;;;;4974826;28;20062;-75
2023/11/28 06:47:23;;;;;;;4.88;2.00;;;3.80;88.90;;;;;;4974533;28;20051;-75
2023/11/28 06:49:49;;;;;;;2.60;1.33;;;3.60;89.40;;;;;;4974687;28;20026;-77
2023/11/28 06:52:15;;;;;;;1.50;0.73;;;3.70;89.70;;;;;;4956357;28;20097;-77
2023/11/28 06:54:42;;;;;;;0.60;0.40;;;3.70;89.40;;;;;;4974612;28;20061;-77
2023/11/28 06:57:08;;;;;;;0.30;0.30;;;3.70;89.10;;;;;;4974548;28;20027;-77
2023/11/28 06:59:35;;;;;;;2.22;1.13;;;3.70;88.70;;;;;;4957183;28;20101;-76
2023/11/28 07:02:01;;;;;;;1.02;0.65;;;3.80;88.80;;;;;;4992935;28;20072;-76
2023/11/28 07:04:27;;;;;;;1.50;0.40;;;3.80;88.80;;;;;;4976315;28;20030;-78
2023/11/28 07:06:52;;;;;;;1.10;0.30;;;3.80;88.70;;;;;;4993879;28;20030;-77
2023/11/28 07:09:18;;;;;;;0.93;0.40;;;3.80;88.70;;;;;;4993824;28;20032;-76
2023/11/28 07:11:44;;;;;;;1.08;0.60;;;3.70;88.70;;;;;;4993647;28;20093;-77
2023/11/28 07:14:09;;;;;;;2.00;0.88;;;3.70;88.90;;;;;;4993901;28;20027;-76
2023/11/28 07:16:35;;;;;;;0.77;0.50;;;3.70;88.90;;;;;;4993648;28;20076;-77
2023/11/28 07:19:01;;;;;;;0.80;0.43;;;3.70;88.90;;;;;;4993825;28;20037;-75
2023/11/28 07:21:26;;;;;;;0.70;0.50;;;3.70;88.80;;;;;;4993705;28;20030;-74
2023/11/28 07:23:52;;;;;;;0.70;0.68;;;3.70;88.40;;;;;;4993608;28;20022;-78
2023/11/28 07:26:20;;;;;;;0.43;0.40;;;3.70;88.40;;;;;;4993428;28;20030;-77
2023/11/28 07:28:46;;;;;;;0.88;0.68;;;3.60;88.40;;;;;;4993458;28;20490;-75
2023/11/28 07:31:15;;;;;;;0.40;0.40;;;3.50;89.00;;;;;;4993495;28;20034;-77
2023/11/28 07:33:40;;;;;;;1.85;0.30;;;3.40;88.80;;;;;;4993549;28;20026;-78
2023/11/28 07:36:12;;;;;;;0.55;0.40;;;3.40;89.00;;;;;;4993505;28;20037;-75
2023/11/28 07:38:39;;;;;;;0.40;0.40;;;3.40;88.60;;;;;;4993361;28;20026;-77
2023/11/28 07:41:05;;;;;;;0.73;0.50;;;3.40;88.70;;;;;;4993304;28;20069;-76
2023/11/28 07:43:33;;;;;;;0.70;0.30;;;3.40;88.80;;;;;;4993465;28;20495;-76
2023/11/28 07:45:58;;;;;;;0.43;0.30;;;3.40;88.20;;;;;;4975788;28;20042;-76
2023/11/28 07:48:24;;;;;;;1.35;0.65;;;3.40;87.60;;;;;;4993087;28;20026;-76
2023/11/28 07:50:49;;;;;;;2.13;0.40;;;3.40;87.20;;;;;;4993357;28;20503;-75
2023/11/28 07:53:15;;;;;;;1.35;0.70;;;3.40;87.20;;;;;;4975587;28;20038;-75
2023/11/28 07:55:41;;;;;;;0.50;0.30;;;3.30;87.00;;;;;;4993063;28;20030;-77
2023/11/28 07:58:06;;;;;;;0.82;0.70;;;3.30;87.30;;;;;;4993076;28;20544;-77
2023/11/28 08:00:32;;;;;;;1.10;0.60;;;3.30;87.60;;;;;;4993192;28;20145;-77
2023/11/28 08:02:58;;;;;;;1.33;1.00;;;3.30;87.80;;;;;;4994997;28;20517;-77
2023/11/28 08:05:24;;;;;;;2.42;1.00;;;3.40;88.00;;;;;;4997081;28;20403;-74
2023/11/28 08:07:50;;;;;;;1.35;1.05;;;3.40;87.80;;;;;;4997017;28;20054;-77
2023/11/28 08:10:15;;;;;;;6.47;1.20;;;3.50;87.60;;;;;;4996972;28;20023;-74
2023/11/28 08:12:41;;;;;;;0.70;0.70;;;3.70;91.10;;;;;;4996637;28;20051;-73
2023/11/28 08:15:07;;;;;;;4.07;1.63;;;3.80;90.00;;;;;;4997023;28;20019;-74
2023/11/28 08:17:33;;;;;;;2.03;1.42;;;4.10;89.00;;;;;;4979439;28;20027;-75
2023/11/28 08:19:59;;;;;;;1.90;1.20;;;4.20;87.40;;;;;;4996909;28;20467;-75
2023/11/28 08:22:28;;;;;;;1.10;1.00;;;4.50;86.40;;;;;;4996209;28;20030;-76
2023/11/28 08:24:53;;;;;;;1.15;0.93;;;4.60;84.90;;;;;;4996624;28;20379;-75
2023/11/28 08:27:19;;;;;;;0.60;0.60;;;4.80;83.80;;;;;;4997115;28;20030;-77
2023/11/28 08:29:45;;;;;;;2.97;0.70;;;4.90;82.30;;;;;;4996748;28;20485;-76
2023/11/28 08:32:11;;;;;;;0.70;0.50;;;5.10;82.30;;;;;;4996537;28;20550;-76
2023/11/28 08:34:37;;;;;;;0.80;0.50;;;5.40;81.70;;;;;;4996687;28;20038;-76
2023/11/28 08:37:03;;;;;;;1.65;0.75;;;5.50;78.40;;;;;;4996705;28;20089;-76
2023/11/28 08:39:29;;;;;;;0.40;0.40;;;5.40;78.20;;;;;;4979168;28;20120;-77
2023/11/28 08:41:55;;;;;;;0.50;0.25;;;5.10;77.60;;;;;;4996688;28;20460;-81
2023/11/28 08:44:21;;;;;;;0.55;0.32;;;5.10;78.60;;;;;;4996657;28;20026;-77
2023/11/28 08:46:48;;;;;;;0.30;0.30;;;5.20;77.20;;;;;;4996161;28;20022;-78
2023/11/28 08:49:14;;;;;;;0.35;0.35;;;5.00;78.20;;;;;;4996311;28;20037;-79
2023/11/28 08:51:41;;;;;;;2.20;0.70;;;5.00;75.80;;;;;;4996249;28;20030;-79
2023/11/28 08:54:06;;;;;;;1.10;0.60;;;4.40;78.10;;;;;;4996354;28;20022;-77
2023/11/28 08:56:32;;;;;;;1.13;0.70;;;4.20;79.20;;;;;;4996786;28;20026;-80
2023/11/28 08:58:57;;;;;;;0.50;0.50;;;4.00;80.90;;;;;;4996443;28;20029;-79
2023/11/28 09:01:23;;;;;;;1.15;0.57;;;3.60;82.40;;;;;;4996216;28;20061;-79
2023/11/28 09:03:50;;;;;;;1.08;0.45;;;3.40;83.50;;;;;;4996198;28;20109;-80
2023/11/28 09:06:16;;;;;;;0.77;0.68;;;3.10;84.80;;;;;;4978868;28;20026;-80
2023/11/28 09:08:42;;;;;;;2.00;1.30;;;3.00;85.90;;;;;;4996171;28;20026;-79
2023/11/28 09:11:08;;;;;;;3.97;1.80;;;2.90;86.00;;;;;;4995737;28;20114;-79
2023/11/28 09:13:33;;;;;;;1.98;1.33;;;2.80;86.10;;;;;;4995484;28;20030;-79
2023/11/28 09:16:08;;;;;;;1.30;0.88;;;2.80;85.90;;;;;;4995513;28;20530;-78
2023/11/28 09:18:37;;;;;;;1.30;0.60;;;2.80;84.90;;;;;;4996068;28;20037;-78
2023/11/28 09:21:04;;;;;;;0.73;0.68;;;2.80;84.00;;;;;;4995380;28;20054;-79
2023/11/28 09:23:31;;;;;;;0.93;0.73;;;2.70;84.00;;;;;;4995756;28;20022;-78
2023/11/28 09:25:56;;;;;;;1.20;0.88;;;2.70;84.10;;;;;;4978182;28;20018;-78
2023/11/28 09:28:22;;;;;;;1.17;0.90;;;2.70;84.40;;;;;;4995624;28;20383;-77
2023/11/28 09:30:47;;;;;;;3.55;1.73;;;2.60;84.30;;;;;;4995154;28;20033;-78
2023/11/28 09:33:13;;;;;;;4.35;2.38;;;2.60;84.90;;;;;;4995369;28;20038;-78
2023/11/28 09:35:40;;;;;;;2.45;1.15;;;2.70;84.80;;;;;;4995570;28;20466;-78
2023/11/28 09:38:07;;;;;;;2.83;1.42;;;2.70;85.20;;;;;;4978060;28;20022;-77
2023/11/28 09:40:32;;;;;;;4.25;1.75;;;2.70;85.20;;;;;;4995466;28;20019;-78
2023/11/28 09:42:58;;;;;;;2.95;1.30;;;2.70;85.30;;;;;;4978079;28;20037;-78
2023/11/28 09:45:25;;;;;;;1.73;1.13;;;2.80;85.10;;;;;;4995274;28;20026;-78
2023/11/28 09:47:52;;;;;;;1.63;0.47;;;2.70;85.50;;;;;;4994855;28;20030;-77
2023/11/28 09:50:22;;;;;;;0.50;0.50;;;2.50;85.60;;;;;;4995202;28;20038;-79
2023/11/28 09:52:51;;;;;;;0.40;0.40;;;2.40;85.90;;;;;;4995192;28;20034;-77
2023/11/28 09:55:18;;;;;;;0.30;0.30;;;2.30;86.30;;;;;;4994955;28;20077;-77
2023/11/28 09:57:48;;;;;;;0.57;0.35;;;2.30;85.80;;;;;;4995262;28;20026;-77
2023/11/28 10:00:18;;;;;;;0.63;0.43;;;2.30;84.70;;;;;;4994962;28;20018;-78
2023/11/28 10:02:44;;;;;;;0.50;0.40;;;2.20;84.90;;;;;;4994950;28;20030;-78
2023/11/28 10:05:11;;;;;;;1.05;0.60;;;2.10;85.00;;;;;;4994947;28;20096;-78
2023/11/28 10:07:42;;;;;;;0.57;0.47;;;2.20;84.60;;;;;;4994761;28;20053;-77
2023/11/28 10:10:09;;;;;;;3.47;0.80;;;2.20;84.20;;;;;;4993906;28;20026;-77
2023/11/28 10:12:36;;;;;;;0.63;0.50;;;2.20;84.30;;;;;;4976972;28;20142;-77
2023/11/28 10:15:07;;;;;;;0.80;0.50;;;2.20;84.70;;;;;;4994482;28;20054;-78
2023/11/28 10:17:35;;;;;;;0.65;0.60;;;2.20;84.00;;;;;;4994873;28;20038;-79
2023/11/28 10:20:08;;;;;;;0.70;0.57;;;2.20;83.80;;;;;;4994717;28;20096;-79
2023/11/28 10:22:34;;;;;;;0.85;0.80;;;2.30;84.10;;;;;;4994624;28;20101;-78
2023/11/28 10:25:12;;;;;;;2.70;1.25;;;2.30;83.70;;;;;;4994520;28;20031;-78
2023/11/28 10:27:41;;;;;;;1.00;0.80;;;2.30;83.60;;;;;;4994591;28;20022;-78
2023/11/28 10:30:12;;;;;;;1.20;0.90;;;2.30;82.80;;;;;;4994530;28;20047;-77
2023/11/28 10:32:38;;;;;;;0.68;0.65;;;2.40;82.50;;;;;;4994771;28;20041;-77
2023/11/28 10:35:05;;;;;;;1.73;0.82;;;2.30;82.80;;;;;;4994303;28;20471;-78
2023/11/28 10:37:35;;;;;;;2.45;0.98;;;2.30;84.30;;;;;;4994141;28;20557;-78
2023/11/28 10:40:04;;;;;;;0.65;0.60;;;2.30;83.50;;;;;;4994263;28;20494;-77
2023/11/28 10:42:30;;;;;;;1.75;0.40;;;2.30;83.40;;;;;;4994282;28;20467;-77
2023/11/28 10:45:00;;;;;;;0.52;0.40;;;2.20;82.90;;;;;;4993564;28;20089;-78
2023/11/28 10:47:31;;;;;;;0.88;0.60;;;2.10;83.00;;;;;;4994114;28;20034;-78
2023/11/28 10:49:57;;;;;;;0.63;0.47;;;2.10;83.10;;;;;;4976553;28;20085;-78
2023/11/28 10:52:27;;;;;;;0.57;0.47;;;2.20;82.40;;;;;;4993882;28;20046;-78
2023/11/28 10:54:56;;;;;;;0.45;0.30;;;2.20;82.20;;;;;;4993930;28;20054;-78
2023/11/28 10:57:28;;;;;;;1.65;0.70;;;2.20;82.00;;;;;;4993583;28;20026;-76
2023/11/28 11:00:02;;;;;;;1.55;0.60;;;2.20;81.60;;;;;;4993920;28;20490;-74
2023/11/28 11:02:32;;;;;;;1.38;0.77;;;2.30;81.20;;;;;;4976930;28;20040;-78
2023/11/28 11:04:58;;;;;;;1.15;0.77;;;2.30;81.30;;;;;;4975690;28;20026;-77
2023/11/28 11:07:25;;;;;;;1.27;0.65;;;2.40;81.80;;;;;;4975604;28;20042;-77
2023/11/28 11:09:51;;;;;;;0.52;0.30;;;2.40;81.90;;;;;;4993286;28;20022;-77
2023/11/28 11:12:19;;;;;;;1.20;0.50;;;2.40;80.90;;;;;;4993348;28;20435;-78
2023/11/28 11:15:05;;;;;;;1.58;0.63;;;2.50;81.40;;;;;;4993586;28;20015;-77
2023/11/28 11:17:43;;;;;;;1.20;0.85;;;2.50;80.80;;;;;;4993199;28;20033;-75
2023/11/28 11:20:11;;;;;;;1.45;0.82;;;2.50;81.40;;;;;;4993489;28;20077;-77
2023/11/28 11:22:41;;;;;;;2.78;1.15;;;2.50;81.70;;;;;;4993560;28;20430;-77
2023/11/28 11:25:08;;;;;;;3.00;1.33;;;2.70;81.60;;;;;;4975746;28;20480;-77
2023/11/28 11:27:34;;;;;;;4.20;1.88;;;2.90;81.00;;;;;;4993462;28;20022;-77
2023/11/28 11:30:04;;;;;;;4.60;1.23;;;2.90;80.80;;;;;;4993326;28;20038;-77
2023/11/28 11:32:33;;;;;;;4.40;1.60;;;2.90;81.50;;;;;;4993280;28;20037;-77
2023/11/28 11:35:04;;;;;;;1.20;0.80;;;2.90;81.50;;;;;;4993167;28;20024;-77
2023/11/28 11:37:30;;;;;;;1.40;0.70;;;2.80;81.40;;;;;;4992854;28;20494;-77
2023/11/28 11:39:59;;;;;;;1.30;0.90;;;2.80;81.10;;;;;;4993437;28;20058;-76
2023/11/28 11:42:35;;;;;;;1.20;0.80;;;2.70;81.80;;;;;;4993270;28;20022;-76
2023/11/28 11:45:06;;;;;;;1.55;0.90;;;2.70;81.20;;;;;;4993421;28;20022;-76
2023/11/28 11:47:33;;;;;;;0.95;0.90;;;2.70;81.20;;;;;;4992986;28;20390;-76
2023/11/28 11:50:00;;;;;;;1.02;0.90;;;2.70;81.10;;;;;;4993186;28;20483;-74
2023/11/28 11:52:27;;;;;;;1.38;0.65;;;2.70;80.60;;;;;;4992741;28;20498;-77
2023/11/28 11:55:04;;;;;;;0.70;0.70;;;2.60;81.10;;;;;;4993065;28;20109;-77
2023/11/28 11:57:30;;;;;;;1.42;1.10;;;2.50;81.50;;;;;;4992937;28;20031;-76
2023/11/28 11:59:56;;;;;;;0.68;0.68;;;2.40;81.00;;;;;;4974955;28;20029;-76
2023/11/28 12:02:22;;;;;;;2.38;1.30;;;2.40;81.20;;;;;;4992565;28;20030;-76
2023/11/28 12:04:48;;;;;;;1.48;0.98;;;2.40;81.50;;;;;;4992676;28;20475;-75
2023/11/28 12:07:15;;;;;;;3.03;1.10;;;2.40;81.40;;;;;;4992913;28;20053;-75
2023/11/28 12:09:42;;;;;;;3.22;0.80;;;2.40;81.20;;;;;;4975232;28;20026;-75
2023/11/28 12:12:09;;;;;;;1.00;0.70;;;2.30;81.60;;;;;;4992649;28;20066;-75
2023/11/28 12:14:36;;;;;;;1.10;1.00;;;2.20;82.00;;;;;;4992641;28;20026;-76
2023/11/28 12:17:02;;;;;;;0.70;0.70;;;2.20;81.60;;;;;;4992677;28;20374;-75
2023/11/28 12:19:29;;;;;;;1.10;0.95;;;2.30;81.40;;;;;;4992814;28;20046;-74
2023/11/28 12:21:57;;;;;;;0.90;0.70;;;2.30;81.50;;;;;;4992842;28;20026;-84
2023/11/28 12:24:24;;;;;;;1.45;0.90;;;2.30;81.60;;;;;;4975430;28;20057;-75
2023/11/28 12:26:50;;;;;;;1.00;0.80;;;2.30;81.80;;;;;;4992698;28;20029;-75
2023/11/28 12:29:16;;;;;;;0.70;0.60;;;2.30;82.30;;;;;;4992744;28;20101;-78
2023/11/28 12:31:43;;;;;;;3.47;0.90;;;2.30;81.70;;;;;;4992735;28;20109;-76
2023/11/28 12:34:09;;;;;;;0.80;0.70;;;2.30;81.10;;;;;;4992743;28;20038;-77
2023/11/28 12:36:34;;;;;;;0.95;0.77;;;2.30;82.00;;;;;;4992644;28;20110;-76
2023/11/28 12:39:05;;;;;;;1.65;1.00;;;2.30;81.70;;;;;;4992592;28;20026;-75
2023/11/28 12:41:37;;;;;;;1.45;0.90;;;2.30;81.60;;;;;;4992655;28;20065;-76
2023/11/28 12:44:12;;;;;;;3.13;1.30;;;2.40;81.50;;;;;;4992768;28;20014;-77
2023/11/28 12:46:38;;;;;;;1.38;1.00;;;2.30;81.10;;;;;;4992679;28;20034;-76
2023/11/28 12:49:06;;;;;;;1.65;0.70;;;2.30;81.50;;;;;;4993076;28;20109;-76
2023/11/28 12:51:32;;;;;;;0.75;0.57;;;2.20;80.80;;;;;;4996276;28;20026;-77
2023/11/28 12:54:08;;;;;;;3.60;0.50;;;2.20;81.50;;;;;;4995822;28;20030;-79